sensor_id;sensor_type;location;lat;lon;timestamp;P1;durP1;ratioP1;P2;durP2;ratioP2
72791;SDS011;60907;53.268;8.764;2023-10-09T00:01:25;2.38;;;0.95;;
72791;SDS011;60907;53.268;8.764;2023-10-09T00:06:19;4.32;;;1.02;;
72791;SDS011;60907;53.268;8.764;2023-10-09T00:09:02;6.82;;;1.10;;
72791;SDS011;60907;53.268;8.764;2023-10-09T00:11:55;3.55;;;1.10;;
72791;SDS011;60907;53.268;8.764;2023-10-09T00:14:25;2.60;;;1.20;;
72791;SDS011;60907;53.268;8.764;2023-10-09T00:16:52;4.43;;;1.20;;
72791;SDS011;60907;53.268;8.764;2023-10-09T00:19:38;6.10;;;1.50;;
72791;SDS011;60907;53.268;8.764;2023-10-09T00:22:03;3.13;;;0.85;;
72791;SDS011;60907;53.268;8.764;2023-10-09T00:24:49;3.25;;;1.30;;
72791;SDS011;60907;53.268;8.764;2023-10-09T00:27:34;4.45;;;1.13;;
72791;SDS011;60907;53.268;8.764;2023-10-09T00:30:01;3.05;;;1.00;;
72791;SDS011;60907;53.268;8.764;2023-10-09T00:32:27;4.70;;;1.50;;
72791;SDS011;60907;53.268;8.764;2023-10-09T00:34:57;3.40;;;1.13;;
72791;SDS011;60907;53.268;8.764;2023-10-09T00:37:24;3.63;;;1.25;;
72791;SDS011;60907;53.268;8.764;2023-10-09T00:39:52;2.70;;;1.40;;
72791;SDS011;60907;53.268;8.764;2023-10-09T00:42:24;2.95;;;1.05;;
72791;SDS011;60907;53.268;8.764;2023-10-09T00:44:58;4.43;;;1.30;;
72791;SDS011;60907;53.268;8.764;2023-10-09T00:47:32;4.68;;;1.33;;
72791;SDS011;60907;53.268;8.764;2023-10-09T00:50:08;2.80;;;1.00;;
72791;SDS011;60907;53.268;8.764;2023-10-09T00:52:54;4.68;;;1.27;;
72791;SDS011;60907;53.268;8.764;2023-10-09T00:55:30;2.72;;;1.10;;
72791;SDS011;60907;53.268;8.764;2023-10-09T00:58:08;3.22;;;1.55;;
72791;SDS011;60907;53.268;8.764;2023-10-09T01:00:37;3.13;;;1.27;;
72791;SDS011;60907;53.268;8.764;2023-10-09T01:03:10;5.53;;;1.02;;
72791;SDS011;60907;53.268;8.764;2023-10-09T01:05:43;4.28;;;1.33;;
72791;SDS011;60907;53.268;8.764;2023-10-09T01:11:03;3.60;;;0.98;;
72791;SDS011;60907;53.268;8.764;2023-10-09T01:13:38;1.33;;;1.00;;
72791;SDS011;60907;53.268;8.764;2023-10-09T01:16:18;3.63;;;1.08;;
72791;SDS011;60907;53.268;8.764;2023-10-09T01:18:52;3.88;;;1.42;;
72791;SDS011;60907;53.268;8.764;2023-10-09T01:21:19;4.07;;;1.48;;
72791;SDS011;60907;53.268;8.764;2023-10-09T01:23:52;3.97;;;1.45;;
72791;SDS011;60907;53.268;8.764;2023-10-09T01:26:31;3.15;;;1.00;;
72791;SDS011;60907;53.268;8.764;2023-10-09T01:29:19;3.90;;;1.20;;
72791;SDS011;60907;53.268;8.764;2023-10-09T01:31:51;6.00;;;1.42;;
72791;SDS011;60907;53.268;8.764;2023-10-09T01:34:23;6.50;;;1.45;;
72791;SDS011;60907;53.268;8.764;2023-10-09T01:36:51;3.30;;;1.60;;
72791;SDS011;60907;53.268;8.764;2023-10-09T01:39:20;6.60;;;1.55;;
72791;SDS011;60907;53.268;8.764;2023-10-09T01:42:05;2.47;;;1.27;;
72791;SDS011;60907;53.268;8.764;2023-10-09T01:44:31;3.83;;;1.13;;
72791;SDS011;60907;53.268;8.764;2023-10-09T01:47:06;4.63;;;1.60;;
72791;SDS011;60907;53.268;8.764;2023-10-09T01:49:38;6.38;;;1.45;;
72791;SDS011;60907;53.268;8.764;2023-10-09T01:52:10;3.00;;;1.58;;
72791;SDS011;60907;53.268;8.764;2023-10-09T01:54:42;6.07;;;2.03;;
72791;SDS011;60907;53.268;8.764;2023-10-09T01:57:15;5.50;;;1.50;;
72791;SDS011;60907;53.268;8.764;2023-10-09T01:59:46;4.18;;;1.65;;
72791;SDS011;60907;53.268;8.764;2023-10-09T02:02:14;4.75;;;1.30;;
72791;SDS011;60907;53.268;8.764;2023-10-09T02:05:05;4.65;;;1.42;;
72791;SDS011;60907;53.268;8.764;2023-10-09T02:07:40;3.33;;;1.33;;
72791;SDS011;60907;53.268;8.764;2023-10-09T02:10:09;4.28;;;1.38;;
72791;SDS011;60907;53.268;8.764;2023-10-09T02:12:46;5.25;;;1.67;;
72791;SDS011;60907;53.268;8.764;2023-10-09T02:15:16;3.75;;;1.70;;
72791;SDS011;60907;53.268;8.764;2023-10-09T02:20:41;2.58;;;1.50;;
72791;SDS011;60907;53.268;8.764;2023-10-09T02:23:06;2.47;;;1.87;;
72791;SDS011;60907;53.268;8.764;2023-10-09T02:25:38;5.97;;;1.67;;
72791;SDS011;60907;53.268;8.764;2023-10-09T02:28:08;3.08;;;1.42;;
72791;SDS011;60907;53.268;8.764;2023-10-09T02:30:34;3.40;;;1.40;;
72791;SDS011;60907;53.268;8.764;2023-10-09T02:32:59;3.90;;;1.80;;
72791;SDS011;60907;53.268;8.764;2023-10-09T02:35:34;5.63;;;1.88;;
72791;SDS011;60907;53.268;8.764;2023-10-09T02:38:03;7.22;;;2.33;;
72791;SDS011;60907;53.268;8.764;2023-10-09T02:40:34;5.40;;;2.00;;
72791;SDS011;60907;53.268;8.764;2023-10-09T02:45:37;2.85;;;1.70;;
72791;SDS011;60907;53.268;8.764;2023-10-09T02:48:15;7.00;;;1.75;;
72791;SDS011;60907;53.268;8.764;2023-10-09T02:50:41;3.72;;;2.03;;
72791;SDS011;60907;53.268;8.764;2023-10-09T02:53:09;3.25;;;2.20;;
72791;SDS011;60907;53.268;8.764;2023-10-09T02:55:43;6.13;;;1.75;;
72791;SDS011;60907;53.268;8.764;2023-10-09T02:58:18;3.97;;;1.65;;
72791;SDS011;60907;53.268;8.764;2023-10-09T03:00:46;2.83;;;1.60;;
72791;SDS011;60907;53.268;8.764;2023-10-09T03:05:43;4.15;;;1.52;;
72791;SDS011;60907;53.268;8.764;2023-10-09T03:08:09;3.85;;;1.65;;
72791;SDS011;60907;53.268;8.764;2023-10-09T03:10:37;6.90;;;2.47;;
72791;SDS011;60907;53.268;8.764;2023-10-09T03:13:03;3.22;;;1.60;;
72791;SDS011;60907;53.268;8.764;2023-10-09T03:15:31;6.70;;;2.13;;
72791;SDS011;60907;53.268;8.764;2023-10-09T03:18:01;4.18;;;1.67;;
72791;SDS011;60907;53.268;8.764;2023-10-09T03:20:27;4.90;;;2.00;;
72791;SDS011;60907;53.268;8.764;2023-10-09T03:22:53;4.13;;;1.80;;
72791;SDS011;60907;53.268;8.764;2023-10-09T03:25:19;5.45;;;1.92;;
72791;SDS011;60907;53.268;8.764;2023-10-09T03:27:45;6.82;;;2.33;;
72791;SDS011;60907;53.268;8.764;2023-10-09T03:30:14;4.70;;;2.30;;
72791;SDS011;60907;53.268;8.764;2023-10-09T03:32:48;3.40;;;1.73;;
72791;SDS011;60907;53.268;8.764;2023-10-09T03:35:16;3.85;;;1.92;;
72791;SDS011;60907;53.268;8.764;2023-10-09T03:37:49;4.50;;;2.13;;
72791;SDS011;60907;53.268;8.764;2023-10-09T03:40:21;5.97;;;2.10;;
72791;SDS011;60907;53.268;8.764;2023-10-09T03:42:47;8.32;;;2.92;;
72791;SDS011;60907;53.268;8.764;2023-10-09T03:45:13;6.70;;;2.20;;
72791;SDS011;60907;53.268;8.764;2023-10-09T03:47:49;5.85;;;1.92;;
72791;SDS011;60907;53.268;8.764;2023-10-09T03:50:18;8.85;;;2.67;;
72791;SDS011;60907;53.268;8.764;2023-10-09T03:52:51;6.88;;;2.20;;
72791;SDS011;60907;53.268;8.764;2023-10-09T03:55:17;3.45;;;2.50;;
72791;SDS011;60907;53.268;8.764;2023-10-09T03:57:44;4.18;;;2.42;;
72791;SDS011;60907;53.268;8.764;2023-10-09T04:00:11;5.25;;;2.53;;
72791;SDS011;60907;53.268;8.764;2023-10-09T04:02:52;7.13;;;2.00;;
72791;SDS011;60907;53.268;8.764;2023-10-09T04:05:17;4.93;;;2.50;;
72791;SDS011;60907;53.268;8.764;2023-10-09T04:07:43;5.47;;;2.60;;
72791;SDS011;60907;53.268;8.764;2023-10-09T04:10:08;4.93;;;2.13;;
72791;SDS011;60907;53.268;8.764;2023-10-09T04:12:52;4.85;;;2.63;;
72791;SDS011;60907;53.268;8.764;2023-10-09T04:15:18;4.43;;;2.65;;
72791;SDS011;60907;53.268;8.764;2023-10-09T04:17:48;8.30;;;2.70;;
72791;SDS011;60907;53.268;8.764;2023-10-09T04:20:16;9.10;;;2.97;;
72791;SDS011;60907;53.268;8.764;2023-10-09T04:22:44;6.15;;;3.00;;
72791;SDS011;60907;53.268;8.764;2023-10-09T04:25:19;6.57;;;3.10;;
72791;SDS011;60907;53.268;8.764;2023-10-09T04:27:57;6.72;;;3.30;;
72791;SDS011;60907;53.268;8.764;2023-10-09T04:30:42;6.20;;;2.85;;
72791;SDS011;60907;53.268;8.764;2023-10-09T04:33:08;8.13;;;3.30;;
72791;SDS011;60907;53.268;8.764;2023-10-09T04:35:53;9.15;;;3.17;;
72791;SDS011;60907;53.268;8.764;2023-10-09T04:38:47;6.68;;;3.22;;
72791;SDS011;60907;53.268;8.764;2023-10-09T04:41:28;6.18;;;2.97;;
72791;SDS011;60907;53.268;8.764;2023-10-09T04:43:58;7.97;;;3.53;;
72791;SDS011;60907;53.268;8.764;2023-10-09T04:46:42;7.22;;;3.60;;
72791;SDS011;60907;53.268;8.764;2023-10-09T04:49:23;8.23;;;3.67;;
72791;SDS011;60907;53.268;8.764;2023-10-09T04:51:52;7.50;;;3.75;;
72791;SDS011;60907;53.268;8.764;2023-10-09T04:54:41;9.65;;;3.75;;
72791;SDS011;60907;53.268;8.764;2023-10-09T04:59:52;9.53;;;4.00;;
72791;SDS011;60907;53.268;8.764;2023-10-09T05:02:17;7.20;;;4.32;;
72791;SDS011;60907;53.268;8.764;2023-10-09T05:04:48;9.48;;;3.92;;
72791;SDS011;60907;53.268;8.764;2023-10-09T05:07:26;11.55;;;4.50;;
72791;SDS011;60907;53.268;8.764;2023-10-09T05:10:11;12.00;;;4.90;;
72791;SDS011;60907;53.268;8.764;2023-10-09T05:12:42;9.68;;;4.53;;
72791;SDS011;60907;53.268;8.764;2023-10-09T05:17:51;11.73;;;5.03;;
72791;SDS011;60907;53.268;8.764;2023-10-09T05:20:21;12.38;;;5.40;;
72791;SDS011;60907;53.268;8.764;2023-10-09T05:22:50;11.50;;;5.20;;
72791;SDS011;60907;53.268;8.764;2023-10-09T05:25:25;12.68;;;5.72;;
72791;SDS011;60907;53.268;8.764;2023-10-09T05:28:09;11.02;;;6.05;;
72791;SDS011;60907;53.268;8.764;2023-10-09T05:30:50;12.73;;;6.22;;
72791;SDS011;60907;53.268;8.764;2023-10-09T05:33:28;13.88;;;6.50;;
72791;SDS011;60907;53.268;8.764;2023-10-09T05:35:54;16.33;;;6.55;;
72791;SDS011;60907;53.268;8.764;2023-10-09T05:38:38;15.55;;;6.97;;
72791;SDS011;60907;53.268;8.764;2023-10-09T05:41:11;15.93;;;7.40;;
72791;SDS011;60907;53.268;8.764;2023-10-09T05:43:56;15.50;;;7.22;;
72791;SDS011;60907;53.268;8.764;2023-10-09T05:46:44;16.77;;;7.50;;
72791;SDS011;60907;53.268;8.764;2023-10-09T05:49:28;16.77;;;7.47;;
72791;SDS011;60907;53.268;8.764;2023-10-09T05:52:11;15.77;;;7.72;;
72791;SDS011;60907;53.268;8.764;2023-10-09T05:54:55;20.27;;;8.27;;
72791;SDS011;60907;53.268;8.764;2023-10-09T05:57:39;14.80;;;6.93;;
72791;SDS011;60907;53.268;8.764;2023-10-09T06:00:23;19.45;;;8.32;;
72791;SDS011;60907;53.268;8.764;2023-10-09T06:03:07;17.52;;;7.55;;
72791;SDS011;60907;53.268;8.764;2023-10-09T06:08:25;21.73;;;8.60;;
72791;SDS011;60907;53.268;8.764;2023-10-09T06:11:03;19.58;;;8.60;;
72791;SDS011;60907;53.268;8.764;2023-10-09T06:13:51;18.88;;;8.60;;
72791;SDS011;60907;53.268;8.764;2023-10-09T06:16:28;21.58;;;9.13;;
72791;SDS011;60907;53.268;8.764;2023-10-09T06:19:10;26.23;;;9.93;;
72791;SDS011;60907;53.268;8.764;2023-10-09T06:21:40;23.77;;;9.75;;
72791;SDS011;60907;53.268;8.764;2023-10-09T06:24:25;27.42;;;10.43;;
72791;SDS011;60907;53.268;8.764;2023-10-09T06:27:11;27.83;;;10.65;;
72791;SDS011;60907;53.268;8.764;2023-10-09T06:29:41;27.42;;;10.25;;
72791;SDS011;60907;53.268;8.764;2023-10-09T06:32:13;29.73;;;11.27;;
72791;SDS011;60907;53.268;8.764;2023-10-09T06:34:51;28.75;;;10.18;;
72791;SDS011;60907;53.268;8.764;2023-10-09T06:37:21;31.65;;;12.15;;
72791;SDS011;60907;53.268;8.764;2023-10-09T06:39:50;26.10;;;10.98;;
72791;SDS011;60907;53.268;8.764;2023-10-09T06:42:20;27.90;;;11.00;;
72791;SDS011;60907;53.268;8.764;2023-10-09T06:45:15;29.48;;;11.25;;
72791;SDS011;60907;53.268;8.764;2023-10-09T06:47:45;31.70;;;11.43;;
72791;SDS011;60907;53.268;8.764;2023-10-09T06:50:21;31.45;;;12.13;;
72791;SDS011;60907;53.268;8.764;2023-10-09T06:52:51;32.40;;;12.77;;
72791;SDS011;60907;53.268;8.764;2023-10-09T06:55:43;33.83;;;12.98;;
72791;SDS011;60907;53.268;8.764;2023-10-09T06:58:26;33.08;;;12.38;;
72791;SDS011;60907;53.268;8.764;2023-10-09T07:00:52;32.22;;;12.98;;
72791;SDS011;60907;53.268;8.764;2023-10-09T07:03:44;31.20;;;12.45;;
72791;SDS011;60907;53.268;8.764;2023-10-09T07:06:24;34.05;;;12.57;;
72791;SDS011;60907;53.268;8.764;2023-10-09T07:09:00;31.70;;;12.70;;
72791;SDS011;60907;53.268;8.764;2023-10-09T07:11:38;35.42;;;13.18;;
72791;SDS011;60907;53.268;8.764;2023-10-09T07:19:28;34.33;;;14.43;;
72791;SDS011;60907;53.268;8.764;2023-10-09T07:22:07;33.20;;;14.48;;
72791;SDS011;60907;53.268;8.764;2023-10-09T07:24:44;41.33;;;14.48;;
72791;SDS011;60907;53.268;8.764;2023-10-09T07:27:16;36.38;;;14.00;;
72791;SDS011;60907;53.268;8.764;2023-10-09T07:29:42;37.72;;;14.65;;
72791;SDS011;60907;53.268;8.764;2023-10-09T07:32:14;36.67;;;14.68;;
72791;SDS011;60907;53.268;8.764;2023-10-09T07:34:51;38.28;;;14.80;;
72791;SDS011;60907;53.268;8.764;2023-10-09T07:37:24;38.55;;;15.98;;
72791;SDS011;60907;53.268;8.764;2023-10-09T07:39:55;40.30;;;15.70;;
72791;SDS011;60907;53.268;8.764;2023-10-09T07:42:24;35.28;;;14.73;;
72791;SDS011;60907;53.268;8.764;2023-10-09T07:45:19;36.58;;;14.85;;
72791;SDS011;60907;53.268;8.764;2023-10-09T07:47:47;34.77;;;14.30;;
72791;SDS011;60907;53.268;8.764;2023-10-09T07:50:40;41.25;;;15.00;;
72791;SDS011;60907;53.268;8.764;2023-10-09T07:53:15;36.63;;;15.00;;
72791;SDS011;60907;53.268;8.764;2023-10-09T07:55:43;41.38;;;15.50;;
72791;SDS011;60907;53.268;8.764;2023-10-09T07:58:19;37.92;;;14.60;;
72791;SDS011;60907;53.268;8.764;2023-10-09T08:00:50;43.45;;;15.85;;
72791;SDS011;60907;53.268;8.764;2023-10-09T08:03:23;39.42;;;16.63;;
72791;SDS011;60907;53.268;8.764;2023-10-09T08:05:50;39.58;;;15.40;;
72791;SDS011;60907;53.268;8.764;2023-10-09T08:08:18;44.53;;;15.95;;
72791;SDS011;60907;53.268;8.764;2023-10-09T08:11:04;43.10;;;15.95;;
72791;SDS011;60907;53.268;8.764;2023-10-09T08:13:50;38.67;;;15.45;;
72791;SDS011;60907;53.268;8.764;2023-10-09T08:16:23;39.10;;;15.52;;
72791;SDS011;60907;53.268;8.764;2023-10-09T08:18:49;38.22;;;15.88;;
72791;SDS011;60907;53.268;8.764;2023-10-09T08:23:45;40.67;;;15.38;;
72791;SDS011;60907;53.268;8.764;2023-10-09T08:26:19;39.25;;;15.30;;
72791;SDS011;60907;53.268;8.764;2023-10-09T08:28:54;37.75;;;14.57;;
72791;SDS011;60907;53.268;8.764;2023-10-09T08:31:39;34.50;;;15.30;;
72791;SDS011;60907;53.268;8.764;2023-10-09T08:34:12;44.95;;;15.55;;
72791;SDS011;60907;53.268;8.764;2023-10-09T08:36:51;39.25;;;14.65;;
72791;SDS011;60907;53.268;8.764;2023-10-09T08:41:55;39.50;;;14.23;;
72791;SDS011;60907;53.268;8.764;2023-10-09T08:44:24;36.97;;;14.38;;
72791;SDS011;60907;53.268;8.764;2023-10-09T08:46:54;37.90;;;14.85;;
72791;SDS011;60907;53.268;8.764;2023-10-09T08:49:20;36.03;;;14.02;;
72791;SDS011;60907;53.268;8.764;2023-10-09T08:51:46;34.72;;;14.18;;
72791;SDS011;60907;53.268;8.764;2023-10-09T08:54:13;40.55;;;14.60;;
72791;SDS011;60907;53.268;8.764;2023-10-09T08:56:40;33.38;;;14.48;;
72791;SDS011;60907;53.268;8.764;2023-10-09T08:59:14;36.88;;;13.38;;
72791;SDS011;60907;53.268;8.764;2023-10-09T09:01:47;36.35;;;13.75;;
72791;SDS011;60907;53.268;8.764;2023-10-09T09:07:25;34.38;;;11.60;;
72791;SDS011;60907;53.268;8.764;2023-10-09T09:09:57;35.83;;;14.27;;
72791;SDS011;60907;53.268;8.764;2023-10-09T09:12:28;34.20;;;12.18;;
72791;SDS011;60907;53.268;8.764;2023-10-09T09:14:56;37.55;;;13.73;;
72791;SDS011;60907;53.268;8.764;2023-10-09T09:17:23;35.55;;;12.52;;
72791;SDS011;60907;53.268;8.764;2023-10-09T09:19:57;35.78;;;14.05;;
72791;SDS011;60907;53.268;8.764;2023-10-09T09:22:22;33.67;;;12.50;;
72791;SDS011;60907;53.268;8.764;2023-10-09T09:24:57;35.35;;;12.18;;
72791;SDS011;60907;53.268;8.764;2023-10-09T09:27:44;33.90;;;13.13;;
72791;SDS011;60907;53.268;8.764;2023-10-09T09:30:27;30.48;;;11.57;;
72791;SDS011;60907;53.268;8.764;2023-10-09T09:33:33;34.85;;;11.95;;
72791;SDS011;60907;53.268;8.764;2023-10-09T09:36:05;33.28;;;12.07;;
72791;SDS011;60907;53.268;8.764;2023-10-09T09:38:31;28.65;;;11.80;;
72791;SDS011;60907;53.268;8.764;2023-10-09T09:41:07;31.88;;;12.75;;
72791;SDS011;60907;53.268;8.764;2023-10-09T09:43:34;26.80;;;11.80;;
72791;SDS011;60907;53.268;8.764;2023-10-09T09:46:00;30.73;;;11.82;;
72791;SDS011;60907;53.268;8.764;2023-10-09T09:48:32;25.83;;;10.77;;
72791;SDS011;60907;53.268;8.764;2023-10-09T09:51:11;24.48;;;10.35;;
72791;SDS011;60907;53.268;8.764;2023-10-09T09:53:39;29.60;;;11.63;;
72791;SDS011;60907;53.268;8.764;2023-10-09T09:56:05;26.83;;;11.30;;
72791;SDS011;60907;53.268;8.764;2023-10-09T09:58:31;27.52;;;11.80;;
72791;SDS011;60907;53.268;8.764;2023-10-09T10:01:07;25.88;;;9.95;;
72791;SDS011;60907;53.268;8.764;2023-10-09T10:03:42;22.35;;;9.65;;
72791;SDS011;60907;53.268;8.764;2023-10-09T10:06:10;24.13;;;11.10;;
72791;SDS011;60907;53.268;8.764;2023-10-09T10:08:38;27.45;;;10.48;;
72791;SDS011;60907;53.268;8.764;2023-10-09T10:11:06;27.27;;;9.65;;
72791;SDS011;60907;53.268;8.764;2023-10-09T10:19:03;26.52;;;10.35;;
72791;SDS011;60907;53.268;8.764;2023-10-09T10:21:46;26.75;;;9.27;;
72791;SDS011;60907;53.268;8.764;2023-10-09T10:27:14;23.90;;;8.80;;
72791;SDS011;60907;53.268;8.764;2023-10-09T10:29:43;25.88;;;9.18;;
72791;SDS011;60907;53.268;8.764;2023-10-09T10:32:11;21.55;;;8.25;;
72791;SDS011;60907;53.268;8.764;2023-10-09T10:34:55;22.27;;;8.48;;
72791;SDS011;60907;53.268;8.764;2023-10-09T10:37:36;19.92;;;8.38;;
72791;SDS011;60907;53.268;8.764;2023-10-09T10:40:08;22.65;;;8.73;;
72791;SDS011;60907;53.268;8.764;2023-10-09T10:42:49;26.45;;;8.77;;
72791;SDS011;60907;53.268;8.764;2023-10-09T10:45:34;16.08;;;8.05;;
72791;SDS011;60907;53.268;8.764;2023-10-09T10:48:01;16.13;;;6.80;;
72791;SDS011;60907;53.268;8.764;2023-10-09T10:50:33;13.05;;;6.28;;
72791;SDS011;60907;53.268;8.764;2023-10-09T10:53:14;13.70;;;5.57;;
72791;SDS011;60907;53.268;8.764;2023-10-09T10:55:57;12.15;;;4.72;;
72791;SDS011;60907;53.268;8.764;2023-10-09T10:58:23;12.00;;;5.95;;
72791;SDS011;60907;53.268;8.764;2023-10-09T11:00:53;6.70;;;4.35;;
72791;SDS011;60907;53.268;8.764;2023-10-09T11:03:21;8.25;;;3.53;;
72791;SDS011;60907;53.268;8.764;2023-10-09T11:06:06;7.55;;;3.55;;
72791;SDS011;60907;53.268;8.764;2023-10-09T11:08:49;6.88;;;3.13;;
72791;SDS011;60907;53.268;8.764;2023-10-09T11:11:22;6.43;;;2.85;;
72791;SDS011;60907;53.268;8.764;2023-10-09T11:13:48;3.92;;;2.03;;
72791;SDS011;60907;53.268;8.764;2023-10-09T11:16:22;4.50;;;2.40;;
72791;SDS011;60907;53.268;8.764;2023-10-09T11:19:00;5.55;;;2.40;;
72791;SDS011;60907;53.268;8.764;2023-10-09T11:21:37;3.75;;;2.08;;
72791;SDS011;60907;53.268;8.764;2023-10-09T11:24:07;4.97;;;2.10;;
72791;SDS011;60907;53.268;8.764;2023-10-09T11:26:51;2.95;;;1.80;;
72791;SDS011;60907;53.268;8.764;2023-10-09T11:29:20;2.95;;;1.88;;
72791;SDS011;60907;53.268;8.764;2023-10-09T11:32:14;3.60;;;1.98;;
72791;SDS011;60907;53.268;8.764;2023-10-09T11:34:45;5.80;;;2.90;;
72791;SDS011;60907;53.268;8.764;2023-10-09T11:37:21;4.32;;;2.53;;
72791;SDS011;60907;53.268;8.764;2023-10-09T11:39:56;4.05;;;2.42;;
72791;SDS011;60907;53.268;8.764;2023-10-09T11:42:23;6.68;;;2.70;;
72791;SDS011;60907;53.268;8.764;2023-10-09T11:45:19;4.68;;;2.65;;
72791;SDS011;60907;53.268;8.764;2023-10-09T11:47:52;5.82;;;2.72;;
72791;SDS011;60907;53.268;8.764;2023-10-09T11:50:39;7.75;;;4.13;;
72791;SDS011;60907;53.268;8.764;2023-10-09T11:53:09;6.65;;;2.95;;
72791;SDS011;60907;53.268;8.764;2023-10-09T11:58:14;8.50;;;2.97;;
72791;SDS011;60907;53.268;8.764;2023-10-09T12:00:48;9.48;;;3.30;;
72791;SDS011;60907;53.268;8.764;2023-10-09T12:03:29;8.07;;;2.95;;
72791;SDS011;60907;53.268;8.764;2023-10-09T12:05:55;11.10;;;3.42;;
72791;SDS011;60907;53.268;8.764;2023-10-09T12:08:37;11.13;;;3.70;;
72791;SDS011;60907;53.268;8.764;2023-10-09T12:11:05;9.27;;;3.47;;
72791;SDS011;60907;53.268;8.764;2023-10-09T12:13:34;8.20;;;3.45;;
72791;SDS011;60907;53.268;8.764;2023-10-09T12:16:00;10.30;;;3.78;;
72791;SDS011;60907;53.268;8.764;2023-10-09T12:18:25;9.55;;;3.28;;
72791;SDS011;60907;53.268;8.764;2023-10-09T12:20:51;10.07;;;3.30;;
72791;SDS011;60907;53.268;8.764;2023-10-09T12:23:20;8.90;;;3.70;;
72791;SDS011;60907;53.268;8.764;2023-10-09T12:25:48;6.60;;;3.05;;
72791;SDS011;60907;53.268;8.764;2023-10-09T12:30:40;15.13;;;2.93;;
72791;SDS011;60907;53.268;8.764;2023-10-09T12:33:12;9.70;;;3.33;;
72791;SDS011;60907;53.268;8.764;2023-10-09T12:35:40;9.45;;;2.72;;
72791;SDS011;60907;53.268;8.764;2023-10-09T12:38:06;13.75;;;3.63;;
72791;SDS011;60907;53.268;8.764;2023-10-09T12:40:36;9.98;;;3.13;;
72791;SDS011;60907;53.268;8.764;2023-10-09T12:43:02;11.35;;;4.18;;
72791;SDS011;60907;53.268;8.764;2023-10-09T12:45:28;9.70;;;3.25;;
72791;SDS011;60907;53.268;8.764;2023-10-09T12:47:58;5.95;;;2.80;;
72791;SDS011;60907;53.268;8.764;2023-10-09T12:50:26;12.18;;;3.00;;
72791;SDS011;60907;53.268;8.764;2023-10-09T12:52:58;4.10;;;2.05;;
72791;SDS011;60907;53.268;8.764;2023-10-09T12:55:27;5.90;;;2.53;;
72791;SDS011;60907;53.268;8.764;2023-10-09T12:58:05;8.07;;;2.58;;
72791;SDS011;60907;53.268;8.764;2023-10-09T13:00:35;8.07;;;2.50;;
72791;SDS011;60907;53.268;8.764;2023-10-09T13:03:13;7.32;;;2.35;;
72791;SDS011;60907;53.268;8.764;2023-10-09T13:05:52;5.85;;;2.00;;
72791;SDS011;60907;53.268;8.764;2023-10-09T13:08:23;8.18;;;2.20;;
72791;SDS011;60907;53.268;8.764;2023-10-09T13:11:03;7.65;;;2.72;;
72791;SDS011;60907;53.268;8.764;2023-10-09T13:13:35;6.32;;;1.98;;
72791;SDS011;60907;53.268;8.764;2023-10-09T13:16:05;7.60;;;2.08;;
72791;SDS011;60907;53.268;8.764;2023-10-09T13:18:37;7.78;;;2.90;;
72791;SDS011;60907;53.268;8.764;2023-10-09T13:21:03;5.72;;;1.90;;
72791;SDS011;60907;53.268;8.764;2023-10-09T13:23:30;5.25;;;2.20;;
72791;SDS011;60907;53.268;8.764;2023-10-09T13:26:05;7.15;;;2.00;;
72791;SDS011;60907;53.268;8.764;2023-10-09T13:31:19;5.13;;;1.80;;
72791;SDS011;60907;53.268;8.764;2023-10-09T13:33:51;5.00;;;1.40;;
72791;SDS011;60907;53.268;8.764;2023-10-09T13:36:20;8.70;;;1.80;;
72791;SDS011;60907;53.268;8.764;2023-10-09T13:38:54;7.75;;;1.92;;
72791;SDS011;60907;53.268;8.764;2023-10-09T13:41:20;7.50;;;1.92;;
72791;SDS011;60907;53.268;8.764;2023-10-09T13:43:46;6.53;;;1.80;;
72791;SDS011;60907;53.268;8.764;2023-10-09T13:46:11;5.47;;;1.67;;
72791;SDS011;60907;53.268;8.764;2023-10-09T13:48:40;5.55;;;2.15;;
72791;SDS011;60907;53.268;8.764;2023-10-09T13:51:09;7.22;;;1.88;;
72791;SDS011;60907;53.268;8.764;2023-10-09T13:53:39;5.78;;;1.67;;
72791;SDS011;60907;53.268;8.764;2023-10-09T13:56:17;4.88;;;1.92;;
72791;SDS011;60907;53.268;8.764;2023-10-09T13:58:44;5.78;;;1.85;;
72791;SDS011;60907;53.268;8.764;2023-10-09T14:01:10;6.85;;;1.42;;
72791;SDS011;60907;53.268;8.764;2023-10-09T14:03:35;7.73;;;1.70;;
72791;SDS011;60907;53.268;8.764;2023-10-09T14:06:03;4.97;;;1.80;;
72791;SDS011;60907;53.268;8.764;2023-10-09T14:08:37;5.03;;;1.58;;
72791;SDS011;60907;53.268;8.764;2023-10-09T14:11:07;7.05;;;1.90;;
72791;SDS011;60907;53.268;8.764;2023-10-09T14:13:38;5.70;;;1.70;;
72791;SDS011;60907;53.268;8.764;2023-10-09T14:16:07;3.38;;;0.85;;
72791;SDS011;60907;53.268;8.764;2023-10-09T14:18:48;2.13;;;0.82;;
72791;SDS011;60907;53.268;8.764;2023-10-09T14:21:18;3.67;;;1.10;;
72791;SDS011;60907;53.268;8.764;2023-10-09T14:23:44;3.00;;;0.90;;
72791;SDS011;60907;53.268;8.764;2023-10-09T14:26:12;3.53;;;0.90;;
72791;SDS011;60907;53.268;8.764;2023-10-09T14:28:38;1.02;;;0.55;;
72791;SDS011;60907;53.268;8.764;2023-10-09T14:31:04;4.55;;;1.00;;
72791;SDS011;60907;53.268;8.764;2023-10-09T14:33:36;1.63;;;0.60;;
72791;SDS011;60907;53.268;8.764;2023-10-09T14:36:01;3.90;;;0.70;;
72791;SDS011;60907;53.268;8.764;2023-10-09T14:38:27;4.05;;;0.60;;
72791;SDS011;60907;53.268;8.764;2023-10-09T14:40:57;6.40;;;0.85;;
72791;SDS011;60907;53.268;8.764;2023-10-09T14:43:25;3.83;;;0.60;;
72791;SDS011;60907;53.268;8.764;2023-10-09T14:45:58;2.05;;;0.43;;
72791;SDS011;60907;53.268;8.764;2023-10-09T14:48:23;3.53;;;0.52;;
72791;SDS011;60907;53.268;8.764;2023-10-09T14:50:52;4.30;;;0.50;;
72791;SDS011;60907;53.268;8.764;2023-10-09T14:53:18;1.58;;;0.65;;
72791;SDS011;60907;53.268;8.764;2023-10-09T14:55:46;2.30;;;0.52;;
72791;SDS011;60907;53.268;8.764;2023-10-09T14:58:13;0.77;;;0.40;;
72791;SDS011;60907;53.268;8.764;2023-10-09T15:00:39;2.80;;;0.70;;
72791;SDS011;60907;53.268;8.764;2023-10-09T15:03:11;3.78;;;0.70;;
72791;SDS011;60907;53.268;8.764;2023-10-09T15:05:41;2.42;;;0.75;;
72791;SDS011;60907;53.268;8.764;2023-10-09T15:10:35;2.80;;;0.55;;
72791;SDS011;60907;53.268;8.764;2023-10-09T15:13:12;4.53;;;0.90;;
72791;SDS011;60907;53.268;8.764;2023-10-09T15:15:42;2.85;;;0.70;;
72791;SDS011;60907;53.268;8.764;2023-10-09T15:18:08;3.03;;;0.40;;
72791;SDS011;60907;53.268;8.764;2023-10-09T15:20:34;2.60;;;0.55;;
72791;SDS011;60907;53.268;8.764;2023-10-09T15:23:00;2.20;;;0.70;;
72791;SDS011;60907;53.268;8.764;2023-10-09T15:25:26;3.15;;;0.73;;
72791;SDS011;60907;53.268;8.764;2023-10-09T15:27:52;1.15;;;0.52;;
72791;SDS011;60907;53.268;8.764;2023-10-09T15:30:17;3.30;;;0.60;;
72791;SDS011;60907;53.268;8.764;2023-10-09T15:32:42;1.15;;;0.55;;
72791;SDS011;60907;53.268;8.764;2023-10-09T15:35:08;1.70;;;0.50;;
72791;SDS011;60907;53.268;8.764;2023-10-09T15:37:43;1.73;;;0.63;;
72791;SDS011;60907;53.268;8.764;2023-10-09T15:40:09;3.10;;;0.50;;
72791;SDS011;60907;53.268;8.764;2023-10-09T15:42:43;4.25;;;0.32;;
72791;SDS011;60907;53.268;8.764;2023-10-09T15:45:14;2.08;;;0.35;;
72791;SDS011;60907;53.268;8.764;2023-10-09T15:47:40;1.25;;;0.50;;
72791;SDS011;60907;53.268;8.764;2023-10-09T15:50:05;1.30;;;0.40;;
72791;SDS011;60907;53.268;8.764;2023-10-09T15:52:34;5.70;;;0.80;;
72791;SDS011;60907;53.268;8.764;2023-10-09T15:54:59;3.63;;;0.32;;
72791;SDS011;60907;53.268;8.764;2023-10-09T15:57:26;1.58;;;0.80;;
72791;SDS011;60907;53.268;8.764;2023-10-09T15:59:51;1.85;;;0.57;;
72791;SDS011;60907;53.268;8.764;2023-10-09T16:02:17;2.90;;;0.75;;
72791;SDS011;60907;53.268;8.764;2023-10-09T16:04:42;2.60;;;0.45;;
72791;SDS011;60907;53.268;8.764;2023-10-09T16:07:10;2.30;;;0.82;;